sensor_id;sensor_type;location;lat;lon;timestamp;temperature;humidity
57242;DHT22;43095;53.302;5.786;2022-12-07T00:01:42;5.60;99.90
57242;DHT22;43095;53.302;5.786;2022-12-07T00:04:12;5.60;99.90
57242;DHT22;43095;53.302;5.786;2022-12-07T00:06:46;5.60;99.90
57242;DHT22;43095;53.302;5.786;2022-12-07T00:09:15;5.60;99.90
57242;DHT22;43095;53.302;5.786;2022-12-07T00:11:44;5.60;99.90
57242;DHT22;43095;53.302;5.786;2022-12-07T00:14:14;5.80;99.90
57242;DHT22;43095;53.302;5.786;2022-12-07T00:16:42;5.80;99.90
57242;DHT22;43095;53.302;5.786;2022-12-07T00:19:11;5.70;99.90
57242;DHT22;43095;53.302;5.786;2022-12-07T00:21:39;5.70;99.90
57242;DHT22;43095;53.302;5.786;2022-12-07T00:24:06;5.80;99.90
57242;DHT22;43095;53.302;5.786;2022-12-07T00:26:35;5.90;99.90
57242;DHT22;43095;53.302;5.786;2022-12-07T00:29:16;6.00;99.90
57242;DHT22;43095;53.302;5.786;2022-12-07T00:31:46;5.90;99.90
57242;DHT22;43095;53.302;5.786;2022-12-07T00:34:16;5.90;99.90
57242;DHT22;43095;53.302;5.786;2022-12-07T00:36:43;5.80;99.90
57242;DHT22;43095;53.302;5.786;2022-12-07T00:39:11;5.80;99.90
57242;DHT22;43095;53.302;5.786;2022-12-07T00:41:38;5.90;99.90
57242;DHT22;43095;53.302;5.786;2022-12-07T00:44:05;5.80;99.90
57242;DHT22;43095;53.302;5.786;2022-12-07T00:46:32;5.80;99.90
57242;DHT22;43095;53.302;5.786;2022-12-07T00:48:59;5.80;99.90
57242;DHT22;43095;53.302;5.786;2022-12-07T00:51:26;5.80;99.90
57242;DHT22;43095;53.302;5.786;2022-12-07T00:53:54;5.70;99.90
57242;DHT22;43095;53.302;5.786;2022-12-07T00:56:26;5.60;99.90
57242;DHT22;43095;53.302;5.786;2022-12-07T00:58:56;5.60;99.90
57242;DHT22;43095;53.302;5.786;2022-12-07T01:01:25;5.50;99.90
57242;DHT22;43095;53.302;5.786;2022-12-07T01:03:53;5.50;99.90
57242;DHT22;43095;53.302;5.786;2022-12-07T01:06:22;5.50;99.90
57242;DHT22;43095;53.302;5.786;2022-12-07T01:08:50;5.50;99.90
57242;DHT22;43095;53.302;5.786;2022-12-07T01:11:19;5.60;99.90
57242;DHT22;43095;53.302;5.786;2022-12-07T01:13:49;5.60;99.90
57242;DHT22;43095;53.302;5.786;2022-12-07T01:16:16;5.60;99.90
57242;DHT22;43095;53.302;5.786;2022-12-07T01:18:47;5.60;99.90
57242;DHT22;43095;53.302;5.786;2022-12-07T01:21:17;5.60;99.90
57242;DHT22;43095;53.302;5.786;2022-12-07T01:23:45;5.60;99.90
57242;DHT22;43095;53.302;5.786;2022-12-07T01:26:14;5.50;99.90
57242;DHT22;43095;53.302;5.786;2022-12-07T01:28:42;5.50;99.90
57242;DHT22;43095;53.302;5.786;2022-12-07T01:31:15;5.50;99.90
57242;DHT22;43095;53.302;5.786;2022-12-07T01:33:45;5.50;99.90
57242;DHT22;43095;53.302;5.786;2022-12-07T01:36:16;5.50;99.90
57242;DHT22;43095;53.302;5.786;2022-12-07T01:38:45;5.50;99.90
57242;DHT22;43095;53.302;5.786;2022-12-07T01:41:13;5.40;99.90
57242;DHT22;43095;53.302;5.786;2022-12-07T01:44:08;5.50;99.90
57242;DHT22;43095;53.302;5.786;2022-12-07T01:46:36;5.50;99.90
57242;DHT22;43095;53.302;5.786;2022-12-07T01:49:08;5.40;99.90
57242;DHT22;43095;53.302;5.786;2022-12-07T01:51:37;5.40;99.90
57242;DHT22;43095;53.302;5.786;2022-12-07T01:54:07;5.40;99.90
57242;DHT22;43095;53.302;5.786;2022-12-07T01:56:36;5.40;99.90
57242;DHT22;43095;53.302;5.786;2022-12-07T01:59:04;5.30;99.90
57242;DHT22;43095;53.302;5.786;2022-12-07T02:01:42;5.30;99.90
57242;DHT22;43095;53.302;5.786;2022-12-07T02:04:10;5.40;99.90
57242;DHT22;43095;53.302;5.786;2022-12-07T02:06:38;5.40;99.90
57242;DHT22;43095;53.302;5.786;2022-12-07T02:09:05;5.50;99.90
57242;DHT22;43095;53.302;5.786;2022-12-07T02:11:33;5.40;99.90
57242;DHT22;43095;53.302;5.786;2022-12-07T02:14:00;5.50;99.90
57242;DHT22;43095;53.302;5.786;2022-12-07T02:16:46;5.50;99.90
57242;DHT22;43095;53.302;5.786;2022-12-07T02:27:50;5.60;99.90
57242;DHT22;43095;53.302;5.786;2022-12-07T02:30:21;5.60;99.90
57242;DHT22;43095;53.302;5.786;2022-12-07T02:33:10;5.60;99.90
57242;DHT22;43095;53.302;5.786;2022-12-07T02:35:48;5.70;99.90
57242;DHT22;43095;53.302;5.786;2022-12-07T02:38:25;5.70;99.90
57242;DHT22;43095;53.302;5.786;2022-12-07T02:40:57;5.60;99.90
57242;DHT22;43095;53.302;5.786;2022-12-07T02:43:29;5.60;99.90
57242;DHT22;43095;53.302;5.786;2022-12-07T02:46:07;5.60;99.90
57242;DHT22;43095;53.302;5.786;2022-12-07T02:48:36;5.60;99.90
57242;DHT22;43095;53.302;5.786;2022-12-07T02:51:04;5.50;99.90
57242;DHT22;43095;53.302;5.786;2022-12-07T02:53:42;5.50;99.90
57242;DHT22;43095;53.302;5.786;2022-12-07T02:56:20;5.60;99.90
57242;DHT22;43095;53.302;5.786;2022-12-07T02:59:12;5.50;99.90
57242;DHT22;43095;53.302;5.786;2022-12-07T03:02:05;5.50;99.90
57242;DHT22;43095;53.302;5.786;2022-12-07T03:07:29;5.50;99.90
57242;DHT22;43095;53.302;5.786;2022-12-07T03:10:28;5.50;99.90
57242;DHT22;43095;53.302;5.786;2022-12-07T03:13:12;5.10;99.90
57242;DHT22;43095;53.302;5.786;2022-12-07T03:16:01;5.50;99.90
57242;DHT22;43095;53.302;5.786;2022-12-07T03:18:34;5.50;99.90
57242;DHT22;43095;53.302;5.786;2022-12-07T03:21:04;5.50;99.90
57242;DHT22;43095;53.302;5.786;2022-12-07T03:23:33;5.50;99.90
57242;DHT22;43095;53.302;5.786;2022-12-07T03:26:03;5.50;99.90
57242;DHT22;43095;53.302;5.786;2022-12-07T03:28:35;5.50;99.90
57242;DHT22;43095;53.302;5.786;2022-12-07T03:33:52;5.50;99.90
57242;DHT22;43095;53.302;5.786;2022-12-07T03:36:26;5.50;99.90
57242;DHT22;43095;53.302;5.786;2022-12-07T03:39:08;5.40;99.90
57242;DHT22;43095;53.302;5.786;2022-12-07T03:41:39;5.40;99.90
57242;DHT22;43095;53.302;5.786;2022-12-07T03:44:11;5.30;99.90
57242;DHT22;43095;53.302;5.786;2022-12-07T03:46:50;5.30;99.90
57242;DHT22;43095;53.302;5.786;2022-12-07T03:49:46;5.30;99.90
57242;DHT22;43095;53.302;5.786;2022-12-07T03:52:42;5.30;99.90
57242;DHT22;43095;53.302;5.786;2022-12-07T03:55:37;5.30;99.90
57242;DHT22;43095;53.302;5.786;2022-12-07T03:58:12;5.40;99.90
57242;DHT22;43095;53.302;5.786;2022-12-07T04:00:43;5.40;99.90
57242;DHT22;43095;53.302;5.786;2022-12-07T04:03:10;5.30;99.90
57242;DHT22;43095;53.302;5.786;2022-12-07T04:05:39;5.30;99.90
57242;DHT22;43095;53.302;5.786;2022-12-07T04:08:06;5.40;99.90
57242;DHT22;43095;53.302;5.786;2022-12-07T04:10:34;5.30;99.90
57242;DHT22;43095;53.302;5.786;2022-12-07T04:13:01;5.30;99.90
57242;DHT22;43095;53.302;5.786;2022-12-07T04:15:28;5.30;99.90
57242;DHT22;43095;53.302;5.786;2022-12-07T04:17:55;5.30;99.90
57242;DHT22;43095;53.302;5.786;2022-12-07T04:20:23;5.40;99.90
57242;DHT22;43095;53.302;5.786;2022-12-07T04:22:50;5.40;99.90
57242;DHT22;43095;53.302;5.786;2022-12-07T04:25:17;5.40;99.90
57242;DHT22;43095;53.302;5.786;2022-12-07T04:27:44;5.40;99.90
57242;DHT22;43095;53.302;5.786;2022-12-07T04:30:12;5.30;99.90
57242;DHT22;43095;53.302;5.786;2022-12-07T04:32:39;5.30;99.90
57242;DHT22;43095;53.302;5.786;2022-12-07T04:35:06;5.30;99.90
57242;DHT22;43095;53.302;5.786;2022-12-07T04:37:34;5.30;99.90
57242;DHT22;43095;53.302;5.786;2022-12-07T04:40:01;5.30;99.90
57242;DHT22;43095;53.302;5.786;2022-12-07T04:42:29;5.30;99.90
57242;DHT22;43095;53.302;5.786;2022-12-07T04:44:56;5.30;99.90
57242;DHT22;43095;53.302;5.786;2022-12-07T04:47:23;5.30;99.90
57242;DHT22;43095;53.302;5.786;2022-12-07T04:49:50;5.40;99.90
57242;DHT22;43095;53.302;5.786;2022-12-07T04:52:17;5.40;99.90
57242;DHT22;43095;53.302;5.786;2022-12-07T04:54:45;5.50;99.90
57242;DHT22;43095;53.302;5.786;2022-12-07T04:57:12;5.50;99.90
57242;DHT22;43095;53.302;5.786;2022-12-07T04:59:39;5.50;99.90
57242;DHT22;43095;53.302;5.786;2022-12-07T05:02:11;5.50;99.90
57242;DHT22;43095;53.302;5.786;2022-12-07T05:04:38;5.40;99.90
57242;DHT22;43095;53.302;5.786;2022-12-07T05:07:06;5.40;99.90
57242;DHT22;43095;53.302;5.786;2022-12-07T05:09:33;5.40;99.90
57242;DHT22;43095;53.302;5.786;2022-12-07T05:12:00;5.40;99.90
57242;DHT22;43095;53.302;5.786;2022-12-07T05:14:27;5.50;99.90
57242;DHT22;43095;53.302;5.786;2022-12-07T05:16:57;5.40;99.90
57242;DHT22;43095;53.302;5.786;2022-12-07T05:19:24;5.30;99.90
57242;DHT22;43095;53.302;5.786;2022-12-07T05:21:53;5.30;99.90
57242;DHT22;43095;53.302;5.786;2022-12-07T05:24:20;5.20;99.90
57242;DHT22;43095;53.302;5.786;2022-12-07T05:26:47;5.10;99.90
57242;DHT22;43095;53.302;5.786;2022-12-07T05:29:16;5.10;99.90
57242;DHT22;43095;53.302;5.786;2022-12-07T05:31:44;5.00;99.90
57242;DHT22;43095;53.302;5.786;2022-12-07T05:34:12;5.00;99.90
57242;DHT22;43095;53.302;5.786;2022-12-07T05:36:40;5.20;99.90
57242;DHT22;43095;53.302;5.786;2022-12-07T05:39:09;5.10;99.90
57242;DHT22;43095;53.302;5.786;2022-12-07T05:41:36;5.10;99.90
57242;DHT22;43095;53.302;5.786;2022-12-07T05:44:22;5.20;99.90
57242;DHT22;43095;53.302;5.786;2022-12-07T05:46:49;5.30;99.90
57242;DHT22;43095;53.302;5.786;2022-12-07T05:49:16;5.30;99.90
57242;DHT22;43095;53.302;5.786;2022-12-07T05:51:44;5.30;99.90
57242;DHT22;43095;53.302;5.786;2022-12-07T05:54:11;5.30;99.90
57242;DHT22;43095;53.302;5.786;2022-12-07T05:56:38;5.20;99.90
57242;DHT22;43095;53.302;5.786;2022-12-07T05:59:05;5.20;99.90
57242;DHT22;43095;53.302;5.786;2022-12-07T06:01:52;5.00;99.90
57242;DHT22;43095;53.302;5.786;2022-12-07T06:04:20;5.00;99.90
57242;DHT22;43095;53.302;5.786;2022-12-07T06:06:48;5.10;99.90
57242;DHT22;43095;53.302;5.786;2022-12-07T06:09:16;5.30;99.90
57242;DHT22;43095;53.302;5.786;2022-12-07T06:11:44;5.20;99.90
57242;DHT22;43095;53.302;5.786;2022-12-07T06:14:30;5.10;99.90
57242;DHT22;43095;53.302;5.786;2022-12-07T06:16:58;5.20;99.90
57242;DHT22;43095;53.302;5.786;2022-12-07T06:19:25;5.30;99.90
57242;DHT22;43095;53.302;5.786;2022-12-07T06:21:54;5.50;99.90
57242;DHT22;43095;53.302;5.786;2022-12-07T06:24:21;5.40;99.90
57242;DHT22;43095;53.302;5.786;2022-12-07T06:26:48;5.40;99.90
57242;DHT22;43095;53.302;5.786;2022-12-07T06:29:16;5.60;99.90
57242;DHT22;43095;53.302;5.786;2022-12-07T06:31:44;5.60;99.90
57242;DHT22;43095;53.302;5.786;2022-12-07T06:34:16;5.50;99.90
57242;DHT22;43095;53.302;5.786;2022-12-07T06:36:44;5.40;99.90
57242;DHT22;43095;53.302;5.786;2022-12-07T06:39:12;5.30;99.90
57242;DHT22;43095;53.302;5.786;2022-12-07T06:41:39;5.20;99.90
57242;DHT22;43095;53.302;5.786;2022-12-07T06:44:07;5.10;99.90
57242;DHT22;43095;53.302;5.786;2022-12-07T06:46:34;5.10;99.90
57242;DHT22;43095;53.302;5.786;2022-12-07T06:49:05;5.10;99.90
57242;DHT22;43095;53.302;5.786;2022-12-07T06:51:32;5.10;99.90
57242;DHT22;43095;53.302;5.786;2022-12-07T06:54:03;5.00;99.90
57242;DHT22;43095;53.302;5.786;2022-12-07T06:56:30;5.00;99.90
57242;DHT22;43095;53.302;5.786;2022-12-07T06:58:58;5.00;99.90
57242;DHT22;43095;53.302;5.786;2022-12-07T07:01:25;5.10;99.90
57242;DHT22;43095;53.302;5.786;2022-12-07T07:03:52;5.10;99.90
57242;DHT22;43095;53.302;5.786;2022-12-07T07:06:20;5.20;99.90
57242;DHT22;43095;53.302;5.786;2022-12-07T07:08:47;5.20;99.90
57242;DHT22;43095;53.302;5.786;2022-12-07T07:11:14;5.20;99.90
57242;DHT22;43095;53.302;5.786;2022-12-07T07:13:41;5.20;99.90
57242;DHT22;43095;53.302;5.786;2022-12-07T07:16:08;5.30;99.90
57242;DHT22;43095;53.302;5.786;2022-12-07T07:18:36;5.30;99.90
57242;DHT22;43095;53.302;5.786;2022-12-07T07:21:03;5.40;99.90
57242;DHT22;43095;53.302;5.786;2022-12-07T07:23:31;5.40;99.90
57242;DHT22;43095;53.302;5.786;2022-12-07T07:25:59;5.20;99.90
57242;DHT22;43095;53.302;5.786;2022-12-07T07:28:26;5.10;99.90
57242;DHT22;43095;53.302;5.786;2022-12-07T07:30:53;5.00;99.90
57242;DHT22;43095;53.302;5.786;2022-12-07T07:33:21;5.00;99.90
57242;DHT22;43095;53.302;5.786;2022-12-07T07:35:48;4.90;99.90
57242;DHT22;43095;53.302;5.786;2022-12-07T07:38:15;4.90;99.90
57242;DHT22;43095;53.302;5.786;2022-12-07T07:40:42;4.90;99.90
57242;DHT22;43095;53.302;5.786;2022-12-07T07:43:09;4.80;99.90
57242;DHT22;43095;53.302;5.786;2022-12-07T07:45:37;4.70;99.90
57242;DHT22;43095;53.302;5.786;2022-12-07T07:48:04;4.80;99.90
57242;DHT22;43095;53.302;5.786;2022-12-07T07:50:31;4.80;99.90
57242;DHT22;43095;53.302;5.786;2022-12-07T07:52:59;4.70;99.90
57242;DHT22;43095;53.302;5.786;2022-12-07T07:55:26;4.80;99.90
57242;DHT22;43095;53.302;5.786;2022-12-07T07:57:54;4.90;99.90
57242;DHT22;43095;53.302;5.786;2022-12-07T08:00:21;5.00;99.90
57242;DHT22;43095;53.302;5.786;2022-12-07T08:02:49;5.00;99.90
57242;DHT22;43095;53.302;5.786;2022-12-07T08:05:16;5.10;99.90
57242;DHT22;43095;53.302;5.786;2022-12-07T08:07:44;5.20;99.90
57242;DHT22;43095;53.302;5.786;2022-12-07T08:10:13;5.30;99.90
57242;DHT22;43095;53.302;5.786;2022-12-07T08:12:42;5.20;99.90
57242;DHT22;43095;53.302;5.786;2022-12-07T08:15:29;5.10;99.90
57242;DHT22;43095;53.302;5.786;2022-12-07T08:17:58;5.00;99.90
57242;DHT22;43095;53.302;5.786;2022-12-07T08:20:25;5.10;99.90
57242;DHT22;43095;53.302;5.786;2022-12-07T08:22:53;5.10;99.90
57242;DHT22;43095;53.302;5.786;2022-12-07T08:25:20;5.10;99.90
57242;DHT22;43095;53.302;5.786;2022-12-07T08:27:49;5.20;99.90
57242;DHT22;43095;53.302;5.786;2022-12-07T08:30:16;5.30;99.90
57242;DHT22;43095;53.302;5.786;2022-12-07T08:32:45;5.40;99.90
57242;DHT22;43095;53.302;5.786;2022-12-07T08:35:13;5.40;99.90
57242;DHT22;43095;53.302;5.786;2022-12-07T08:37:41;5.40;99.90
57242;DHT22;43095;53.302;5.786;2022-12-07T08:40:09;5.40;99.90
57242;DHT22;43095;53.302;5.786;2022-12-07T08:42:42;5.40;99.90
57242;DHT22;43095;53.302;5.786;2022-12-07T08:45:14;5.40;99.90
57242;DHT22;43095;53.302;5.786;2022-12-07T08:47:45;5.40;99.90
57242;DHT22;43095;53.302;5.786;2022-12-07T08:50:14;5.40;99.90
57242;DHT22;43095;53.302;5.786;2022-12-07T08:52:41;5.40;99.90
57242;DHT22;43095;53.302;5.786;2022-12-07T08:55:11;5.50;99.90
57242;DHT22;43095;53.302;5.786;2022-12-07T08:57:38;5.50;99.90
57242;DHT22;43095;53.302;5.786;2022-12-07T09:00:06;5.50;99.90
57242;DHT22;43095;53.302;5.786;2022-12-07T09:02:34;5.60;99.90
57242;DHT22;43095;53.302;5.786;2022-12-07T09:05:01;5.60;99.90
57242;DHT22;43095;53.302;5.786;2022-12-07T09:07:30;5.70;99.90
57242;DHT22;43095;53.302;5.786;2022-12-07T09:09:59;5.80;99.90
57242;DHT22;43095;53.302;5.786;2022-12-07T09:12:27;5.70;99.90
57242;DHT22;43095;53.302;5.786;2022-12-07T09:14:54;5.50;99.90
57242;DHT22;43095;53.302;5.786;2022-12-07T09:17:21;5.40;99.90
57242;DHT22;43095;53.302;5.786;2022-12-07T09:19:48;5.40;99.90
57242;DHT22;43095;53.302;5.786;2022-12-07T09:22:15;5.30;99.90
57242;DHT22;43095;53.302;5.786;2022-12-07T09:24:43;5.20;99.90
57242;DHT22;43095;53.302;5.786;2022-12-07T09:27:12;5.20;99.90
57242;DHT22;43095;53.302;5.786;2022-12-07T09:29:39;5.20;99.90
57242;DHT22;43095;53.302;5.786;2022-12-07T09:32:07;5.10;99.90
57242;DHT22;43095;53.302;5.786;2022-12-07T09:34:37;5.10;99.90
57242;DHT22;43095;53.302;5.786;2022-12-07T09:37:05;5.20;99.90
57242;DHT22;43095;53.302;5.786;2022-12-07T09:39:33;5.20;99.90
57242;DHT22;43095;53.302;5.786;2022-12-07T09:42:03;5.30;99.90
57242;DHT22;43095;53.302;5.786;2022-12-07T09:44:31;5.30;99.90
57242;DHT22;43095;53.302;5.786;2022-12-07T09:46:58;5.40;99.90
57242;DHT22;43095;53.302;5.786;2022-12-07T09:49:29;5.50;99.90
57242;DHT22;43095;53.302;5.786;2022-12-07T09:52:17;5.60;99.90
57242;DHT22;43095;53.302;5.786;2022-12-07T09:54:47;5.70;99.90
57242;DHT22;43095;53.302;5.786;2022-12-07T09:57:15;5.70;99.90
57242;DHT22;43095;53.302;5.786;2022-12-07T09:59:43;5.80;99.90
57242;DHT22;43095;53.302;5.786;2022-12-07T10:04:59;6.00;99.90
57242;DHT22;43095;53.302;5.786;2022-12-07T10:07:29;5.80;99.90
57242;DHT22;43095;53.302;5.786;2022-12-07T10:09:57;5.40;99.90
57242;DHT22;43095;53.302;5.786;2022-12-07T10:12:24;5.30;99.90
57242;DHT22;43095;53.302;5.786;2022-12-07T10:14:57;5.30;99.90
57242;DHT22;43095;53.302;5.786;2022-12-07T10:17:39;5.30;99.90
57242;DHT22;43095;53.302;5.786;2022-12-07T10:20:25;5.50;99.90
57242;DHT22;43095;53.302;5.786;2022-12-07T10:22:55;5.50;99.90
57242;DHT22;43095;53.302;5.786;2022-12-07T10:25:29;5.50;99.90
57242;DHT22;43095;53.302;5.786;2022-12-07T10:28:09;5.60;99.90
57242;DHT22;43095;53.302;5.786;2022-12-07T10:31:03;5.70;99.90
57242;DHT22;43095;53.302;5.786;2022-12-07T10:33:50;5.80;99.90
57242;DHT22;43095;53.302;5.786;2022-12-07T10:36:19;6.00;99.90
57242;DHT22;43095;53.302;5.786;2022-12-07T10:38:51;6.00;99.90
57242;DHT22;43095;53.302;5.786;2022-12-07T10:41:19;6.10;99.90
57242;DHT22;43095;53.302;5.786;2022-12-07T10:43:49;6.10;99.90
57242;DHT22;43095;53.302;5.786;2022-12-07T10:52:18;6.30;99.90
57242;DHT22;43095;53.302;5.786;2022-12-07T11:12:05;6.90;99.90
57242;DHT22;43095;53.302;5.786;2022-12-07T11:17:20;6.80;99.90
57242;DHT22;43095;53.302;5.786;2022-12-07T11:20:03;6.70;99.90
57242;DHT22;43095;53.302;5.786;2022-12-07T11:23:02;6.40;99.90
57242;DHT22;43095;53.302;5.786;2022-12-07T11:25:36;5.60;99.90
57242;DHT22;43095;53.302;5.786;2022-12-07T11:31:22;5.20;99.90
57242;DHT22;43095;53.302;5.786;2022-12-07T11:34:24;5.10;99.90
57242;DHT22;43095;53.302;5.786;2022-12-07T11:37:03;5.20;99.90
57242;DHT22;43095;53.302;5.786;2022-12-07T11:39:41;5.20;99.90
57242;DHT22;43095;53.302;5.786;2022-12-07T11:42:41;5.30;99.90
57242;DHT22;43095;53.302;5.786;2022-12-07T11:45:13;5.40;99.90
57242;DHT22;43095;53.302;5.786;2022-12-07T11:47:48;5.40;99.90
57242;DHT22;43095;53.302;5.786;2022-12-07T11:50:24;5.40;99.90
57242;DHT22;43095;53.302;5.786;2022-12-07T11:53:03;5.50;99.90
57242;DHT22;43095;53.302;5.786;2022-12-07T12:00:55;5.70;99.90
57242;DHT22;43095;53.302;5.786;2022-12-07T12:03:31;5.70;99.90
57242;DHT22;43095;53.302;5.786;2022-12-07T12:06:01;5.70;99.90
57242;DHT22;43095;53.302;5.786;2022-12-07T12:20:57;5.60;99.90
57242;DHT22;43095;53.302;5.786;2022-12-07T12:26:49;5.70;99.90
57242;DHT22;43095;53.302;5.786;2022-12-07T12:32:19;5.70;99.90
57242;DHT22;43095;53.302;5.786;2022-12-07T12:42:44;5.80;99.90
57242;DHT22;43095;53.302;5.786;2022-12-07T12:45:28;5.80;99.90
57242;DHT22;43095;53.302;5.786;2022-12-07T12:48:03;5.80;99.90
57242;DHT22;43095;53.302;5.786;2022-12-07T12:50:33;5.80;99.90
57242;DHT22;43095;53.302;5.786;2022-12-07T12:53:02;5.80;99.90
57242;DHT22;43095;53.302;5.786;2022-12-07T12:58:31;5.90;99.90
57242;DHT22;43095;53.302;5.786;2022-12-07T13:04:18;5.90;99.90
57242;DHT22;43095;53.302;5.786;2022-12-07T13:06:48;6.10;99.90
57242;DHT22;43095;53.302;5.786;2022-12-07T13:09:37;5.90;99.90
57242;DHT22;43095;53.302;5.786;2022-12-07T13:12:14;5.90;99.90
57242;DHT22;43095;53.302;5.786;2022-12-07T13:14:57;5.90;99.90
57242;DHT22;43095;53.302;5.786;2022-12-07T13:20:05;5.90;99.90
57242;DHT22;43095;53.302;5.786;2022-12-07T13:22:43;5.70;99.90
57242;DHT22;43095;53.302;5.786;2022-12-07T13:25:12;5.50;99.90
57242;DHT22;43095;53.302;5.786;2022-12-07T13:28:04;5.40;99.90
57242;DHT22;43095;53.302;5.786;2022-12-07T13:30:47;5.20;99.90
57242;DHT22;43095;53.302;5.786;2022-12-07T13:33:17;5.10;99.90
57242;DHT22;43095;53.302;5.786;2022-12-07T13:35:46;5.10;99.90
57242;DHT22;43095;53.302;5.786;2022-12-07T13:38:32;5.10;99.90
57242;DHT22;43095;53.302;5.786;2022-12-07T13:41:14;5.10;99.90
57242;DHT22;43095;53.302;5.786;2022-12-07T13:43:48;5.10;99.90
57242;DHT22;43095;53.302;5.786;2022-12-07T13:46:19;5.10;99.90
57242;DHT22;43095;53.302;5.786;2022-12-07T13:48:49;5.10;99.90
57242;DHT22;43095;53.302;5.786;2022-12-07T13:51:23;5.20;99.90
57242;DHT22;43095;53.302;5.786;2022-12-07T13:54:01;5.20;99.90
57242;DHT22;43095;53.302;5.786;2022-12-07T13:56:35;5.20;99.90
57242;DHT22;43095;53.302;5.786;2022-12-07T13:59:07;5.20;99.90
57242;DHT22;43095;53.302;5.786;2022-12-07T14:01:37;5.20;99.90
57242;DHT22;43095;53.302;5.786;2022-12-07T14:06:54;5.20;99.90
57242;DHT22;43095;53.302;5.786;2022-12-07T14:09:23;5.20;99.90
57242;DHT22;43095;53.302;5.786;2022-12-07T14:11:53;5.30;99.90
57242;DHT22;43095;53.302;5.786;2022-12-07T14:14:23;5.20;99.90
57242;DHT22;43095;53.302;5.786;2022-12-07T14:16:57;5.10;99.90
57242;DHT22;43095;53.302;5.786;2022-12-07T14:19:49;5.20;99.90
57242;DHT22;43095;53.302;5.786;2022-12-07T14:22:27;5.20;99.90
57242;DHT22;43095;53.302;5.786;2022-12-07T14:25:23;5.20;99.90
57242;DHT22;43095;53.302;5.786;2022-12-07T14:28:01;5.20;99.90
57242;DHT22;43095;53.302;5.786;2022-12-07T14:30:30;5.30;99.90
57242;DHT22;43095;53.302;5.786;2022-12-07T14:33:01;5.20;99.90
57242;DHT22;43095;53.302;5.786;2022-12-07T14:35:29;5.20;99.90
57242;DHT22;43095;53.302;5.786;2022-12-07T14:37:58;5.30;99.90
57242;DHT22;43095;53.302;5.786;2022-12-07T14:40:29;5.30;99.90
57242;DHT22;43095;53.302;5.786;2022-12-07T14:43:03;5.30;99.90
57242;DHT22;43095;53.302;5.786;2022-12-07T14:45:31;5.30;99.90
57242;DHT22;43095;53.302;5.786;2022-12-07T14:47:59;5.30;99.90
57242;DHT22;43095;53.302;5.786;2022-12-07T14:50:50;5.20;99.90
57242;DHT22;43095;53.302;5.786;2022-12-07T14:53:41;5.20;99.90
57242;DHT22;43095;53.302;5.786;2022-12-07T14:56:09;5.10;99.90
57242;DHT22;43095;53.302;5.786;2022-12-07T14:58:36;5.10;99.90
57242;DHT22;43095;53.302;5.786;2022-12-07T15:01:04;4.90;99.90
57242;DHT22;43095;53.302;5.786;2022-12-07T15:03:31;4.90;99.90
57242;DHT22;43095;53.302;5.786;2022-12-07T15:05:58;4.90;99.90
57242;DHT22;43095;53.302;5.786;2022-12-07T15:08:26;5.00;99.90
57242;DHT22;43095;53.302;5.786;2022-12-07T15:10:54;4.80;99.90
57242;DHT22;43095;53.302;5.786;2022-12-07T15:13:21;4.70;99.90
57242;DHT22;43095;53.302;5.786;2022-12-07T15:16:11;4.70;99.90
57242;DHT22;43095;53.302;5.786;2022-12-07T15:18:40;4.70;99.90
57242;DHT22;43095;53.302;5.786;2022-12-07T15:21:24;4.60;99.90
57242;DHT22;43095;53.302;5.786;2022-12-07T15:23:53;4.70;99.90
57242;DHT22;43095;53.302;5.786;2022-12-07T15:26:20;4.70;99.90
57242;DHT22;43095;53.302;5.786;2022-12-07T15:28:48;4.70;99.90
57242;DHT22;43095;53.302;5.786;2022-12-07T15:31:16;4.60;99.90
57242;DHT22;43095;53.302;5.786;2022-12-07T15:34:04;4.60;99.90
57242;DHT22;43095;53.302;5.786;2022-12-07T15:36:32;4.60;99.90
57242;DHT22;43095;53.302;5.786;2022-12-07T15:38:59;4.60;99.90
57242;DHT22;43095;53.302;5.786;2022-12-07T15:41:42;4.60;99.90
57242;DHT22;43095;53.302;5.786;2022-12-07T15:44:13;4.60;99.90
57242;DHT22;43095;53.302;5.786;2022-12-07T15:46:59;4.70;99.90
57242;DHT22;43095;53.302;5.786;2022-12-07T15:49:27;4.70;99.90
57242;DHT22;43095;53.302;5.786;2022-12-07T15:51:59;4.60;99.90
57242;DHT22;43095;53.302;5.786;2022-12-07T15:54:28;4.60;99.90
57242;DHT22;43095;53.302;5.786;2022-12-07T15:56:56;4.60;99.90
57242;DHT22;43095;53.302;5.786;2022-12-07T15:59:25;4.60;99.90
57242;DHT22;43095;53.302;5.786;2022-12-07T16:01:52;4.50;99.90
57242;DHT22;43095;53.302;5.786;2022-12-07T16:04:19;4.50;99.90
57242;DHT22;43095;53.302;5.786;2022-12-07T16:06:47;4.40;99.90
57242;DHT22;43095;53.302;5.786;2022-12-07T16:09:14;4.30;99.90
57242;DHT22;43095;53.302;5.786;2022-12-07T16:11:42;4.40;99.90
57242;DHT22;43095;53.302;5.786;2022-12-07T16:14:09;4.40;99.90
57242;DHT22;43095;53.302;5.786;2022-12-07T16:16:37;4.40;99.90
57242;DHT22;43095;53.302;5.786;2022-12-07T16:19:05;4.60;99.90
57242;DHT22;43095;53.302;5.786;2022-12-07T16:21:33;4.60;99.90
57242;DHT22;43095;53.302;5.786;2022-12-07T16:24:05;4.60;99.90
57242;DHT22;43095;53.302;5.786;2022-12-07T16:26:33;4.50;99.90
57242;DHT22;43095;53.302;5.786;2022-12-07T16:29:01;4.50;99.90
57242;DHT22;43095;53.302;5.786;2022-12-07T16:31:28;4.50;99.90
57242;DHT22;43095;53.302;5.786;2022-12-07T16:33:58;4.60;99.90
57242;DHT22;43095;53.302;5.786;2022-12-07T16:36:25;4.60;99.90
57242;DHT22;43095;53.302;5.786;2022-12-07T16:39:14;4.60;99.90
57242;DHT22;43095;53.302;5.786;2022-12-07T16:41:41;4.50;99.90
57242;DHT22;43095;53.302;5.786;2022-12-07T16:44:11;4.50;99.90
57242;DHT22;43095;53.302;5.786;2022-12-07T16:46:39;4.50;99.90
57242;DHT22;43095;53.302;5.786;2022-12-07T16:49:09;4.50;99.90
57242;DHT22;43095;53.302;5.786;2022-12-07T16:51:38;4.30;99.90
57242;DHT22;43095;53.302;5.786;2022-12-07T16:54:05;4.50;99.90
57242;DHT22;43095;53.302;5.786;2022-12-07T16:56:32;4.40;99.90
57242;DHT22;43095;53.302;5.786;2022-12-07T16:59:00;4.40;99.90
57242;DHT22;43095;53.302;5.786;2022-12-07T17:01:28;4.50;99.90
57242;DHT22;43095;53.302;5.786;2022-12-07T17:03:57;4.50;99.90
57242;DHT22;43095;53.302;5.786;2022-12-07T17:06:27;4.40;99.90
57242;DHT22;43095;53.302;5.786;2022-12-07T17:08:56;4.50;99.90
57242;DHT22;43095;53.302;5.786;2022-12-07T17:11:26;4.50;99.90
57242;DHT22;43095;53.302;5.786;2022-12-07T17:13:54;4.30;99.90
57242;DHT22;43095;53.302;5.786;2022-12-07T17:16:40;4.30;99.90
57242;DHT22;43095;53.302;5.786;2022-12-07T17:19:10;4.30;99.90
57242;DHT22;43095;53.302;5.786;2022-12-07T17:21:37;4.30;99.90
57242;DHT22;43095;53.302;5.786;2022-12-07T17:24:08;4.30;99.90
57242;DHT22;43095;53.302;5.786;2022-12-07T17:26:36;4.30;99.90
57242;DHT22;43095;53.302;5.786;2022-12-07T17:29:05;4.20;99.90
57242;DHT22;43095;53.302;5.786;2022-12-07T17:31:33;4.10;99.90
57242;DHT22;43095;53.302;5.786;2022-12-07T17:34:01;4.10;99.90
57242;DHT22;43095;53.302;5.786;2022-12-07T17:36:30;4.20;99.90
57242;DHT22;43095;53.302;5.786;2022-12-07T17:38:57;4.20;99.90
57242;DHT22;43095;53.302;5.786;2022-12-07T17:41:28;4.20;99.90